createdAt,value
2023-03-31T00:04:37.970Z,11.2
2023-03-31T00:09:44.340Z,11.2
2023-03-31T00:15:14.745Z,11.2
2023-03-31T00:20:53.206Z,11.1
2023-03-31T00:25:03.534Z,11.1
2023-03-31T00:30:29.878Z,11.0
2023-03-31T00:35:16.212Z,10.9
2023-03-31T00:41:06.841Z,10.9
2023-03-31T00:45:29.187Z,10.9
2023-03-31T00:50:35.620Z,10.8
2023-03-31T00:55:41.988Z,10.7
2023-03-31T01:00:48.529Z,10.7
2023-03-31T01:05:54.809Z,10.6
2023-03-31T01:11:01.196Z,10.5
2023-03-31T01:16:08.080Z,10.5
2023-03-31T01:21:14.185Z,10.4
2023-03-31T01:26:20.564Z,10.4
2023-03-31T01:36:33.306Z,10.3
2023-03-31T01:41:39.700Z,10.3
2023-03-31T01:47:06.293Z,10.3
2023-03-31T01:52:33.836Z,10.2
2023-03-31T01:56:58.184Z,10.2
2023-03-31T02:02:05.535Z,10.2
2023-03-31T02:07:31.952Z,10.2
2023-03-31T02:13:02.351Z,10.2
2023-03-31T02:17:48.729Z,10.3
2023-03-31T02:22:55.104Z,10.3
2023-03-31T02:27:57.690Z,10.3
2023-03-31T02:32:44.119Z,10.3
2023-03-31T02:38:14.487Z,10.3
2023-03-31T02:42:56.805Z,10.3
2023-03-31T02:48:03.213Z,10.4
2023-03-31T02:53:09.591Z,10.4
2023-03-31T02:58:16.158Z,10.3
2023-03-31T03:03:23.811Z,10.3
2023-03-31T03:08:30.175Z,10.3
2023-03-31T03:14:00.718Z,10.3
2023-03-31T03:19:07.065Z,10.3
2023-03-31T03:23:49.393Z,10.3
2023-03-31T03:28:55.897Z,10.3
2023-03-31T03:34:02.350Z,10.3
2023-03-31T03:39:28.709Z,10.3
2023-03-31T03:44:15.054Z,10.3
2023-03-31T03:49:21.548Z,10.3
2023-03-31T03:54:29.473Z,10.2
2023-03-31T03:59:35.845Z,10.3
2023-03-31T04:04:42.433Z,10.2
2023-03-31T04:09:48.799Z,10.2
2023-03-31T04:14:56.757Z,10.2
2023-03-31T04:20:03.172Z,10.2
2023-03-31T04:25:11.164Z,10.2
2023-03-31T04:30:21.557Z,10.2
2023-03-31T04:35:25.567Z,10.2
2023-03-31T04:40:32.014Z,10.2
2023-03-31T04:45:42.451Z,10.2
2023-03-31T04:50:44.797Z,10.2
2023-03-31T04:55:51.167Z,10.2
2023-03-31T05:00:57.581Z,10.2
2023-03-31T05:06:04.488Z,10.2
2023-03-31T05:11:10.425Z,10.1
2023-03-31T05:16:16.940Z,10.1
2023-03-31T05:21:27.348Z,10.1
2023-03-31T05:26:31.258Z,10.1
2023-03-31T05:31:37.703Z,10.1
2023-03-31T05:36:45.617Z,10.1
2023-03-31T05:41:52.127Z,10.1
2023-03-31T05:46:58.614Z,10.1
2023-03-31T05:52:05.028Z,10.1
2023-03-31T05:57:15.398Z,10.1
2023-03-31T06:02:17.788Z,10.0
2023-03-31T06:07:25.717Z,10.1
2023-03-31T06:12:32.300Z,10.1
2023-03-31T06:17:39.166Z,10.1
2023-03-31T06:22:45.296Z,10.1
2023-03-31T06:27:53.186Z,10.1
2023-03-31T06:32:59.588Z,10.0
2023-03-31T06:38:07.544Z,10.0
2023-03-31T06:43:17.885Z,10.1
2023-03-31T06:48:20.253Z,10.1
2023-03-31T06:58:39.615Z,10.1
2023-03-31T07:03:43.006Z,10.1
2023-03-31T07:08:49.385Z,10.1
2023-03-31T07:13:57.363Z,10.2
2023-03-31T07:19:03.702Z,10.2
2023-03-31T07:24:11.622Z,10.2
2023-03-31T07:29:18.017Z,10.2
2023-03-31T07:34:24.368Z,10.2
2023-03-31T07:39:30.737Z,10.3
2023-03-31T07:44:37.154Z,10.4
2023-03-31T07:49:43.627Z,10.4
2023-03-31T07:54:50.005Z,10.5
2023-03-31T07:59:56.544Z,10.6
2023-03-31T08:05:03.316Z,10.7
2023-03-31T08:10:09.213Z,10.7
2023-03-31T08:15:16.628Z,10.8
2023-03-31T08:25:29.659Z,10.9
2023-03-31T08:30:36.058Z,11.0
2023-03-31T08:35:44.031Z,11.0
2023-03-31T08:40:50.344Z,11.0
2023-03-31T08:45:56.788Z,11.0
2023-03-31T08:51:04.603Z,11.0
2023-03-31T08:56:15.206Z,11.0
2023-03-31T09:01:21.682Z,11.0
2023-03-31T09:06:25.506Z,11.0
2023-03-31T09:11:32.055Z,11.0
2023-03-31T09:16:38.505Z,11.0
2023-03-31T09:21:48.795Z,11.0
2023-03-31T09:26:52.744Z,11.0
2023-03-31T09:31:59.167Z,11.0
2023-03-31T09:37:05.600Z,11.0
2023-03-31T09:42:12.088Z,11.0
2023-03-31T09:47:18.590Z,11.0
2023-03-31T09:52:24.957Z,11.1
2023-03-31T09:57:33.565Z,11.1
2023-03-31T10:02:37.794Z,11.1
2023-03-31T10:07:45.663Z,11.1
2023-03-31T10:12:52.154Z,11.1
2023-03-31T10:17:58.611Z,11.1
2023-03-31T10:23:04.923Z,11.1
2023-03-31T10:28:12.850Z,11.1
2023-03-31T10:33:23.222Z,11.2
2023-03-31T10:38:27.195Z,11.2
2023-03-31T10:43:33.724Z,11.3
2023-03-31T10:48:40.135Z,11.4
2023-03-31T10:53:46.505Z,11.4
2023-03-31T10:59:04.615Z,11.6
2023-03-31T11:03:59.493Z,11.8
2023-03-31T11:09:05.870Z,12.1
2023-03-31T11:14:12.374Z,12.5
2023-03-31T11:19:18.785Z,12.8
2023-03-31T11:24:25.681Z,13.2
2023-03-31T11:29:32.053Z,13.7
2023-03-31T11:34:38.466Z,14.0
2023-03-31T11:39:48.850Z,14.3
2023-03-31T11:44:51.210Z,14.7
2023-03-31T11:49:57.785Z,15.0
2023-03-31T11:54:54.149Z,15.4
2023-03-31T12:00:10.527Z,15.7
2023-03-31T12:05:20.663Z,16.0
2023-03-31T12:10:30.834Z,16.3
2023-03-31T12:15:33.212Z,16.6
2023-03-31T12:20:39.774Z,16.9
2023-03-31T12:25:46.201Z,17.2
2023-03-31T12:30:53.813Z,17.5
2023-03-31T12:35:58.995Z,17.6
2023-03-31T12:41:05.344Z,17.6
2023-03-31T12:46:11.847Z,17.6
2023-03-31T12:51:18.202Z,17.5
2023-03-31T12:56:24.572Z,17.4
2023-03-31T13:01:31.002Z,17.3
2023-03-31T13:06:37.341Z,17.2
2023-03-31T13:11:43.686Z,17.1
2023-03-31T13:16:50.095Z,17.1
2023-03-31T13:21:56.450Z,17.0
2023-03-31T13:27:02.789Z,16.9
2023-03-31T13:32:09.198Z,16.9
2023-03-31T13:37:15.751Z,16.8
2023-03-31T13:42:22.215Z,16.8
2023-03-31T13:47:28.606Z,16.7
2023-03-31T13:52:34.968Z,16.7
2023-03-31T13:57:41.329Z,16.7
2023-03-31T14:02:47.763Z,16.7
2023-03-31T14:07:54.671Z,16.7
2023-03-31T14:13:01.005Z,16.7
2023-03-31T14:18:07.471Z,16.8
2023-03-31T14:23:13.100Z,16.8
2023-03-31T14:28:24.448Z,16.8
2023-03-31T14:33:26.843Z,16.9
2023-03-31T14:38:33.240Z,16.9
2023-03-31T14:43:39.595Z,16.9
2023-03-31T14:48:45.966Z,16.9
2023-03-31T14:53:52.574Z,17.0
2023-03-31T14:58:58.928Z,17.0
2023-03-31T15:04:05.290Z,16.9
2023-03-31T15:09:11.684Z,16.9
2023-03-31T15:14:18.165Z,16.8
2023-03-31T15:19:24.486Z,16.6
2023-03-31T15:24:30.902Z,16.5
2023-03-31T15:29:37.258Z,16.3
2023-03-31T15:34:43.615Z,16.1
2023-03-31T15:39:50.012Z,16.0
2023-03-31T15:44:57.925Z,15.8
2023-03-31T15:50:04.392Z,15.5
2023-03-31T15:55:12.293Z,15.3
2023-03-31T16:00:18.636Z,15.1
2023-03-31T16:05:27.521Z,14.9
2023-03-31T16:10:33.040Z,14.7
2023-03-31T16:15:39.428Z,14.6
2023-03-31T16:20:45.760Z,14.5
2023-03-31T16:25:52.169Z,14.4
2023-03-31T16:30:58.672Z,14.3
2023-03-31T16:36:05.156Z,14.2
2023-03-31T16:41:15.555Z,14.2
2023-03-31T16:46:17.972Z,14.1
2023-03-31T16:51:24.264Z,14.0
2023-03-31T16:56:32.269Z,13.9
2023-03-31T17:01:39.027Z,13.8
2023-03-31T17:06:45.313Z,13.7
2023-03-31T17:11:51.736Z,13.6
2023-03-31T17:17:01.742Z,13.5
2023-03-31T17:22:09.203Z,13.4
2023-03-31T17:27:15.686Z,13.3
2023-03-31T17:32:22.313Z,13.2
2023-03-31T17:37:30.019Z,13.1
2023-03-31T17:42:36.463Z,13.0
2023-03-31T17:47:42.857Z,12.9
2023-03-31T17:52:49.297Z,12.8
2023-03-31T17:58:50.006Z,12.7
2023-03-31T18:04:18.438Z,12.7
2023-03-31T18:09:02.738Z,12.6
2023-03-31T18:14:28.276Z,12.5
2023-03-31T18:19:20.612Z,12.4
2023-03-31T18:24:02.941Z,12.4
2023-03-31T18:30:13.501Z,12.3
2023-03-31T18:39:22.092Z,12.1
2023-03-31T18:44:52.480Z,12.1
2023-03-31T18:49:34.884Z,12.0
2023-03-31T18:54:41.366Z,11.9
2023-03-31T18:59:47.772Z,11.9
2023-03-31T19:06:02.322Z,11.8
2023-03-31T19:10:00.574Z,11.7
2023-03-31T19:15:07.567Z,11.7
2023-03-31T19:21:17.220Z,11.6
2023-03-31T19:25:19.527Z,11.6
2023-03-31T19:30:26.899Z,11.5
2023-03-31T19:35:33.350Z,11.5
2023-03-31T19:40:39.702Z,11.4
2023-03-31T19:46:06.215Z,11.4
2023-03-31T19:51:12.489Z,11.3
2023-03-31T19:55:58.939Z,11.3
2023-03-31T20:01:29.393Z,11.2
2023-03-31T20:06:31.750Z,11.2
2023-03-31T20:16:24.514Z,11.1
2023-03-31T20:21:50.886Z,11.1
2023-03-31T20:26:38.375Z,11.1
2023-03-31T20:33:33.940Z,11.0
2023-03-31T20:36:50.115Z,11.0
2023-03-31T20:42:17.550Z,11.0
2023-03-31T20:52:49.343Z,10.9
2023-03-31T20:57:15.693Z,10.9
2023-03-31T21:03:43.477Z,10.9
2023-03-31T21:07:29.633Z,10.8
2023-03-31T21:12:36.035Z,10.8
2023-03-31T21:17:42.483Z,10.8
2023-03-31T21:23:12.872Z,10.8
2023-03-31T21:28:15.228Z,10.7
2023-03-31T21:33:21.594Z,10.7
2023-03-31T21:38:28.002Z,10.7
2023-03-31T21:43:14.304Z,10.7
2023-03-31T21:48:22.278Z,10.6
2023-03-31T21:54:12.776Z,10.6
2023-03-31T21:58:35.007Z,10.6
2023-03-31T22:08:47.907Z,10.6
2023-03-31T22:13:54.316Z,10.5
2023-03-31T22:19:00.653Z,10.5
2023-03-31T22:25:05.144Z,10.5
2023-03-31T22:29:13.519Z,10.5
2023-03-31T22:34:47.420Z,10.5
2023-03-31T22:39:29.868Z,10.4
2023-03-31T22:44:36.352Z,10.4
2023-03-31T22:49:42.722Z,10.4
2023-03-31T22:54:49.118Z,10.4
2023-03-31T23:04:51.854Z,10.3
2023-03-31T23:10:08.432Z,10.3
2023-03-31T23:15:14.837Z,10.3
2023-03-31T23:20:45.250Z,10.3
2023-03-31T23:25:51.665Z,10.3
2023-03-31T23:30:34.156Z,10.3
2023-03-31T23:36:00.645Z,10.3
2023-03-31T23:45:53.477Z,10.2
2023-03-31T23:51:03.781Z,10.2
